Flight Track Log - Related Links

Times and Time Zones

All times are in EDT time to prevent confusion due to time zone crossing. See the VNR104 flight status page for this flight to view local times or setup timezone preferences in your user account.

Time Position Orientation Groundspeed Altitude Reporting Facility
EDT Latitude Longitude Course Direction KTS MPH feet Rate Location/Type
Wed 05:12:46 PM 38.6833 -90.7167 25° Northeast 196 226 2,500  Level Gateway (St. Louis) TRACON
Wed 05:13:13 PM 38.7228 -90.7219 354° North 238 274 3,400 1,551 Climbing Kansas City Center
Wed 05:14:15 PM 38.7892 -90.7228 359° North 235 270 4,800 1,887 Climbing Kansas City Center
Wed 05:15:17 PM 38.8517 -90.7122 North 238 274 7,300 2,274 Climbing Kansas City Center
Wed 05:16:19 PM 38.9019 -90.6597 39° Northeast 235 270 9,500 2,112 Climbing Kansas City Center
Wed 05:17:22 PM 38.9525 -90.6056 40° Northeast 235 270 11,700 2,256 Climbing Kansas City Center
Wed 05:18:00 PM 38.9581 -90.2252 25° Northeast  Level FlightAware Approximate
Wed 05:18:24 PM 39.0047 -90.5525 38° Northeast 236 272 14,200  Level Kansas City Center
Wed 05:19:26 PM 39.0572 -90.4981 39° Northeast 238 274 15,000 387 Climbing Kansas City Center
Wed 05:20:28 PM 39.1403 -90.4125 39° Northeast 307 353 15,000 726 Level Kansas City Center
Wed 05:21:30 PM 39.2086 -90.3406 39° Northeast 317 365 16,500 1,694 Climbing Kansas City Center
Wed 05:22:32 PM 39.2708 -90.2761 39° Northeast 293 337 18,500 1,984 Climbing Kansas City Center
Wed 05:23:34 PM 39.3289 -90.2144 39° Northeast 277 319 20,600 1,694 Climbing Kansas City Center
Wed 05:24:36 PM 39.3917 -90.1511 38° Northeast 281 323 22,000 1,161 Climbing Kansas City Center
Wed 05:25:38 PM 39.4581 -90.0814 39° Northeast 299 344 23,000 484 Climbing Kansas City Center
Wed 05:26:40 PM 39.5322 -90.0042 39° Northeast 332 382 23,000  Level Kansas City Center
Wed 05:27:42 PM 39.6261 -89.9036 40° Northeast 359 413 23,000  Level Kansas City Center
Wed 05:28:44 PM 39.7067 -89.8178 39° Northeast 370 426 23,000  Level Kansas City Center
Wed 05:29:46 PM 39.7842 -89.7358 39° Northeast 370 426 23,000  Level Kansas City Center
Wed 05:30:48 PM 39.8642 -89.6531 38° Northeast 368 423 23,000  Level Kansas City Center
Wed 05:31:12 PM 39.8969 -89.6244 34° Northeast 369 425 23,000  Level Chicago Center
Wed 05:32:14 PM 39.9789 -89.5447 37° Northeast 368 423 23,000  Level Chicago Center
Wed 05:33:16 PM 40.0794 -89.4511 35° Northeast 369 425 23,000  Level Chicago Center
Wed 05:34:18 PM 40.1622 -89.3725 36° Northeast 369 425 23,000  Level Chicago Center
Wed 05:35:20 PM 40.2436 -89.2922 37° Northeast 367 422 23,000 -672 Level Chicago Center
Wed 05:36:23 PM 40.3264 -89.2136 36° Northeast 369 425 21,600 -1,632 Descending Chicago Center
Wed 05:37:25 PM 40.4061 -89.1378 36° Northeast 358 412 19,600 -2,081 Descending Chicago Center
Wed 05:38:27 PM 40.4975 -89.0497 36° Northeast 344 396 17,300 -1,984 Descending Chicago Center
Wed 05:39:29 PM 40.5706 -88.9786 36° Northeast 332 382 15,500 -1,742 Descending Chicago Center
Wed 05:40:31 PM 40.6414 -88.9094 37° Northeast 322 371 13,700 -1,210 Descending Chicago Center
Wed 05:41:33 PM 40.7139 -88.8369 37° Northeast 315 362 13,000 -339 Descending Chicago Center
Wed 05:42:35 PM 40.7831 -88.7686 37° Northeast 313 360 13,000  Level Chicago Center
Wed 05:43:37 PM 40.8597 -88.7117 29° Northeast 325 374 13,000  Level Chicago Center
Wed 05:44:39 PM 40.9542 -88.6592 23° Northeast 311 358 13,000 -581 Level Chicago Center
Wed 05:45:41 PM 41.0333 -88.6133 24° Northeast 311 358 11,800 -1,548 Descending Chicago Center
Wed 05:46:43 PM 41.1081 -88.5708 23° Northeast 301 346 9,800 -1,935 Descending Chicago Center
Wed 05:47:45 PM 41.1772 -88.5308 24° Northeast 280 322 7,800 -1,776 Descending Chicago Center
Wed 05:48:48 PM 41.2494 -88.4894 23° Northeast 282 325 6,100 -912 Descending Chicago Center
Wed 05:49:50 PM 41.3192 -88.4489 24° Northeast 276 318 5,900 -97 Descending Chicago Center
Wed 05:50:52 PM 41.3853 -88.3736 40° Northeast 278 320 5,900 -97 Level Chicago Center
Wed 05:51:54 PM 41.4292 -88.2950 53° Northeast 268 308 5,700 -726 Descending Chicago Center
Wed 05:52:56 PM 41.4750 -88.2144 53° Northeast 272 313 4,400 -871 Descending Chicago Center
Wed 05:53:58 PM 41.5192 -88.1361 53° Northeast 265 305 3,900 -242 Descending Chicago Center
Wed 05:55:00 PM 41.5633 -88.0556 54° Northeast 265 305 3,900  Level Chicago Center
Wed 05:56:02 PM 41.6094 -87.9758 52° Northeast 268 308 3,900  Level Chicago Center
Wed 05:57:04 PM 41.6611 -87.9111 43° Northeast 260 299 3,900 -677 Level Chicago Center
Wed 05:58:06 PM 41.7103 -87.8469 44° Northeast 229 264 2,500 -1,286 Descending Chicago Center
Wed 05:58:28 PM 41.7167 -87.8333 58° Northeast 179 206 2,100 -795 Descending Chicago TRACON
Wed 05:59:29 PM 41.7500 -87.7833 48° Northeast 133 153 1,400 -689 Descending Chicago TRACON
Wed 06:02:00 PM 41.7833 -87.7500 51° Northeast  Level FlightAware Approximate

Login

Don't have an account? Register now (free) for customized features, flight alerts, and more!